createdAt,value
2023-07-24T00:01:37.897Z,1
2023-07-24T00:03:38.363Z,1
2023-07-24T00:05:37.941Z,1
2023-07-24T00:07:41.551Z,1
2023-07-24T00:09:37.861Z,1
2023-07-24T00:11:38.380Z,1
2023-07-24T00:13:37.977Z,1
2023-07-24T00:15:38.350Z,1
2023-07-24T00:17:37.988Z,1
2023-07-24T00:19:37.944Z,1
2023-07-24T00:21:37.895Z,1
2023-07-24T00:23:37.927Z,1
2023-07-24T00:25:44.703Z,1
2023-07-24T00:27:41.558Z,1
2023-07-24T00:29:37.937Z,1
2023-07-24T00:31:37.874Z,1
2023-07-24T00:33:41.593Z,1
2023-07-24T00:35:37.944Z,1
2023-07-24T00:37:44.653Z,1
2023-07-24T00:39:44.648Z,1
2023-07-24T00:41:37.961Z,1
2023-07-24T00:43:37.880Z,1
2023-07-24T00:45:41.498Z,1
2023-07-24T00:47:38.400Z,1
2023-07-24T00:49:44.615Z,1
2023-07-24T00:51:37.910Z,1
2023-07-24T00:53:38.423Z,1
2023-07-24T00:55:35.200Z,1
2023-07-24T00:57:37.865Z,1
2023-07-24T00:59:44.676Z,1
2023-07-24T01:01:37.894Z,1
2023-07-24T01:03:44.709Z,1
2023-07-24T01:05:37.926Z,1
2023-07-24T01:07:37.906Z,1
2023-07-24T01:09:37.909Z,1
2023-07-24T01:11:37.967Z,1
2023-07-24T01:13:37.905Z,1
2023-07-24T01:15:41.570Z,1
2023-07-24T01:17:37.960Z,1
2023-07-24T01:19:37.890Z,1
2023-07-24T01:21:37.899Z,1
2023-07-24T01:23:37.944Z,1
2023-07-24T01:25:37.919Z,1
2023-07-24T01:27:41.569Z,1
2023-07-24T01:29:37.971Z,1
2023-07-24T01:31:37.887Z,1
2023-07-24T01:33:37.898Z,1
2023-07-24T01:35:37.969Z,1
2023-07-24T01:37:41.567Z,1
2023-07-24T01:39:41.563Z,1
2023-07-24T01:41:38.357Z,1
2023-07-24T01:43:41.537Z,1
2023-07-24T01:45:37.962Z,1
2023-07-24T01:47:41.721Z,1
2023-07-24T01:49:38.262Z,1
2023-07-24T01:51:37.934Z,1
2023-07-24T01:53:37.963Z,1
2023-07-24T01:55:37.949Z,1
2023-07-24T01:57:37.895Z,1
2023-07-24T01:59:37.945Z,1
2023-07-24T02:01:41.697Z,1
2023-07-24T02:03:44.623Z,1
2023-07-24T02:05:41.685Z,1
2023-07-24T02:07:41.636Z,1
2023-07-24T02:09:41.600Z,1
2023-07-24T02:11:37.920Z,1
2023-07-24T02:13:37.953Z,1
2023-07-24T02:15:37.949Z,1
2023-07-24T02:17:38.460Z,1
2023-07-24T02:19:41.649Z,1
2023-07-24T02:21:41.573Z,1
2023-07-24T02:23:37.941Z,1
2023-07-24T02:25:44.794Z,1
2023-07-24T02:27:37.908Z,1
2023-07-24T02:29:37.957Z,1
2023-07-24T02:31:37.975Z,1
2023-07-24T02:33:38.355Z,1
2023-07-24T02:35:41.554Z,1
2023-07-24T02:37:41.662Z,1
2023-07-24T02:39:37.916Z,1
2023-07-24T02:41:37.994Z,1
2023-07-24T02:43:37.974Z,1
2023-07-24T02:45:37.979Z,1
2023-07-24T02:47:38.056Z,1
2023-07-24T02:49:37.956Z,1
2023-07-24T02:51:41.549Z,1
2023-07-24T02:53:38.008Z,1
2023-07-24T02:55:37.949Z,1
2023-07-24T02:57:41.613Z,1
2023-07-24T02:59:37.963Z,1
2023-07-24T03:01:37.999Z,1
2023-07-24T03:05:38.011Z,0
2023-07-24T03:07:37.938Z,0
2023-07-24T03:09:37.955Z,0
2023-07-24T03:11:39.696Z,0.1
2023-07-24T03:13:35.190Z,0.1
2023-07-24T03:15:37.978Z,0.4
2023-07-24T03:17:37.984Z,0.8
2023-07-24T03:19:37.948Z,1.6
2023-07-24T03:21:41.654Z,3.2
2023-07-24T03:23:37.967Z,5.5
2023-07-24T03:25:37.937Z,8.2
2023-07-24T03:27:37.990Z,11.6
2023-07-24T03:29:38.037Z,15.6
2023-07-24T03:31:38.008Z,20.1
2023-07-24T03:33:44.909Z,23.3
2023-07-24T03:35:37.964Z,25.8
2023-07-24T03:37:41.637Z,24.5
2023-07-24T03:39:37.935Z,25.8
2023-07-24T03:41:38.436Z,30
2023-07-24T03:43:35.226Z,33.1
2023-07-24T03:45:44.752Z,60.3
2023-07-24T03:47:38.654Z,77.5
2023-07-24T03:49:41.579Z,94.6
2023-07-24T03:51:41.638Z,115.6
2023-07-24T03:53:37.959Z,141.2
2023-07-24T03:55:37.966Z,172.4
2023-07-24T03:57:41.597Z,190.6
2023-07-24T03:59:37.960Z,210.6
2023-07-24T04:01:44.712Z,221.4
2023-07-24T04:03:41.611Z,221.4
2023-07-24T04:05:37.963Z,210.6
2023-07-24T04:07:38.387Z,210.6
2023-07-24T04:09:37.931Z,210.6
2023-07-24T04:11:37.998Z,210.6
2023-07-24T04:13:37.976Z,221.4
2023-07-24T04:15:37.932Z,244.7
2023-07-24T04:17:38.012Z,257.2
2023-07-24T04:19:37.979Z,270.4
2023-07-24T04:21:37.998Z,270.4
2023-07-24T04:23:40.130Z,270.4
2023-07-24T04:25:37.921Z,270.4
2023-07-24T04:27:40.129Z,257.2
2023-07-24T04:29:37.960Z,270.4
2023-07-24T04:31:41.653Z,284.3
2023-07-24T04:33:37.970Z,298.9
2023-07-24T04:35:44.731Z,347.2
2023-07-24T04:37:38.480Z,468.7
2023-07-24T04:39:41.217Z,601.8
2023-07-24T04:41:37.973Z,735.1
2023-07-24T04:43:37.941Z,897.8
2023-07-24T04:45:38.006Z,992.3
2023-07-24T04:47:37.981Z,1152.9
2023-07-24T04:51:37.967Z,1339.4
2023-07-24T04:53:41.665Z,1480.3
2023-07-24T04:55:37.968Z,1556.2
2023-07-24T04:57:37.936Z,1636
2023-07-24T04:59:38.008Z,1719.9
2023-07-24T05:01:38.010Z,1808
2023-07-24T05:03:37.939Z,1719.9
2023-07-24T05:05:37.964Z,1719.9
2023-07-24T05:07:38.123Z,1556.2
2023-07-24T05:09:37.975Z,1480.3
2023-07-24T05:11:37.972Z,1480.3
2023-07-24T05:13:37.963Z,1556.2
2023-07-24T05:15:38.429Z,1480.3
2023-07-24T05:17:38.016Z,1480.3
2023-07-24T05:19:41.535Z,1480.3
2023-07-24T05:21:37.976Z,1480.3
2023-07-24T05:23:41.588Z,1480.3
2023-07-24T05:25:37.984Z,1480.3
2023-07-24T05:27:42.491Z,1480.3
2023-07-24T05:29:38.406Z,1556.2
2023-07-24T05:31:41.594Z,1636
2023-07-24T05:33:38.430Z,1900.7
2023-07-24T05:35:38.409Z,2321.6
2023-07-24T05:37:38.429Z,2835.6
2023-07-24T05:39:38.005Z,3463.4
2023-07-24T05:41:35.345Z,3641
2023-07-24T05:43:38.374Z,4230.2
2023-07-24T05:45:41.652Z,4447.1
2023-07-24T05:47:41.704Z,4447.1
2023-07-24T05:49:38.791Z,4230.2
2023-07-24T05:51:37.960Z,3463.4
2023-07-24T05:53:41.673Z,2697.3
2023-07-24T05:55:37.942Z,1808
2023-07-24T05:57:37.992Z,1556.2
2023-07-24T05:59:44.801Z,1556.2
2023-07-24T06:01:38.361Z,1636
2023-07-24T06:03:38.028Z,1998.2
2023-07-24T06:05:37.967Z,2440.6
2023-07-24T06:07:37.968Z,2981
2023-07-24T06:09:41.638Z,3463.4
2023-07-24T06:11:37.982Z,3294.5
2023-07-24T06:13:41.594Z,3463.4
2023-07-24T06:15:40.488Z,3641
2023-07-24T06:17:41.750Z,4447.1
2023-07-24T06:19:38.461Z,4914.8
2023-07-24T06:21:44.767Z,4675.1
2023-07-24T06:23:37.993Z,4914.8
2023-07-24T06:25:38.399Z,5166.8
2023-07-24T06:27:41.688Z,4230.2
2023-07-24T06:29:39.923Z,3641
2023-07-24T06:31:38.020Z,3133.8
2023-07-24T06:33:37.931Z,2697.3
2023-07-24T06:35:37.978Z,2100.6
2023-07-24T06:37:38.044Z,1556.2
2023-07-24T06:39:41.664Z,1152.9
2023-07-24T06:41:38.023Z,665.1
2023-07-24T06:43:37.959Z,403.4
2023-07-24T06:45:38.145Z,298.9
2023-07-24T06:47:38.026Z,244.7
2023-07-24T06:49:38.459Z,181.3
2023-07-24T06:51:41.595Z,115.6
2023-07-24T06:53:37.988Z,115.6
2023-07-24T06:55:38.009Z,134.3
2023-07-24T06:57:37.987Z,164
2023-07-24T06:59:41.193Z,172.4
2023-07-24T07:01:37.991Z,181.3
2023-07-24T07:03:38.030Z,190.6
2023-07-24T07:07:41.693Z,181.3
2023-07-24T07:09:38.067Z,190.6
2023-07-24T07:11:38.042Z,210.6
2023-07-24T07:13:44.808Z,244.7
2023-07-24T07:15:38.009Z,270.4
2023-07-24T07:17:38.019Z,314.2
2023-07-24T07:19:41.611Z,347.2
2023-07-24T07:21:38.037Z,365
2023-07-24T07:23:41.608Z,365
2023-07-24T07:25:37.961Z,365
2023-07-24T07:27:44.852Z,383.8
2023-07-24T07:29:38.446Z,424.1
2023-07-24T07:31:38.004Z,468.7
2023-07-24T07:33:37.972Z,518
2023-07-24T07:35:41.709Z,632.7
2023-07-24T07:37:38.421Z,699.2
2023-07-24T07:39:37.987Z,735.1
2023-07-24T07:41:44.868Z,665.1
2023-07-24T07:43:37.956Z,632.7
2023-07-24T07:45:38.048Z,601.8
2023-07-24T07:47:38.006Z,572.5
2023-07-24T07:49:38.134Z,572.5
2023-07-24T07:51:37.957Z,665.1
2023-07-24T07:53:38.028Z,812.4
2023-07-24T07:55:38.021Z,897.8
2023-07-24T07:57:37.980Z,854.1
2023-07-24T07:59:37.983Z,854.1
2023-07-24T08:01:44.783Z,854.1
2023-07-24T08:03:38.440Z,854.1
2023-07-24T08:05:37.989Z,943.9
2023-07-24T08:07:41.695Z,1096.6
2023-07-24T08:09:41.618Z,1212
2023-07-24T08:11:41.204Z,1339.4
2023-07-24T08:15:38.460Z,1998.2
2023-07-24T08:17:41.652Z,2440.6
2023-07-24T08:21:38.409Z,2981
2023-07-24T08:23:44.692Z,3133.8
2023-07-24T08:25:38.451Z,3294.5
2023-07-24T08:27:50.154Z,3641
2023-07-24T08:29:38.460Z,4023.9
2023-07-24T08:31:35.314Z,4023.9
2023-07-24T08:33:37.946Z,4914.8
2023-07-24T08:35:38.064Z,5431.7
2023-07-24T08:37:37.982Z,6002.9
2023-07-24T08:39:38.309Z,6310.7
2023-07-24T08:41:44.895Z,6310.7
2023-07-24T08:43:41.533Z,6634.2
2023-07-24T08:45:41.896Z,6634.2
2023-07-24T08:47:38.484Z,6634.2
2023-07-24T08:49:37.988Z,6634.2
2023-07-24T08:51:41.533Z,6974.4
2023-07-24T08:53:38.603Z,7707.9
2023-07-24T08:55:37.958Z,8103.1
2023-07-24T08:57:37.997Z,9414.4
2023-07-24T09:01:35.222Z,10404.6
2023-07-24T09:03:38.561Z,8955.3
2023-07-24T09:05:38.028Z,9414.4
2023-07-24T09:07:37.980Z,9414.4
2023-07-24T09:09:37.969Z,10404.6
2023-07-24T09:11:44.932Z,10938
2023-07-24T09:13:37.984Z,10938
2023-07-24T09:15:37.981Z,10938
2023-07-24T09:17:42.125Z,10938
2023-07-24T09:19:37.994Z,10404.6
2023-07-24T09:21:37.998Z,10404.6
2023-07-24T09:23:38.002Z,10404.6
2023-07-24T09:25:38.002Z,8955.3
2023-07-24T09:27:38.082Z,5710.1
2023-07-24T09:29:44.838Z,5166.8
2023-07-24T09:31:37.999Z,5166.8
2023-07-24T09:33:38.015Z,6002.9
2023-07-24T09:35:38.088Z,6974.4
2023-07-24T09:37:38.010Z,7707.9
2023-07-24T09:39:38.017Z,9897.1
2023-07-24T09:41:44.860Z,9414.4
2023-07-24T09:43:40.176Z,9897.1
2023-07-24T09:47:54.731Z,10938
2023-07-24T09:49:38.014Z,8955.3
2023-07-24T09:51:37.991Z,9897.1
2023-07-24T09:53:41.638Z,10938
2023-07-24T09:55:37.967Z,10404.6
2023-07-24T09:57:38.052Z,10938
2023-07-24T09:59:38.054Z,13359.7
2023-07-24T10:01:38.058Z,12708.2
2023-07-24T10:03:43.292Z,13359.7
2023-07-24T10:05:41.635Z,12088.4
2023-07-24T10:07:37.986Z,10404.6
2023-07-24T10:09:38.114Z,9414.4
2023-07-24T10:11:38.608Z,8518.5
2023-07-24T10:13:38.018Z,6974.4
2023-07-24T10:15:38.458Z,5710.1
2023-07-24T10:17:38.203Z,4914.8
2023-07-24T10:19:37.997Z,4675.1
2023-07-24T10:21:41.677Z,4914.8
2023-07-24T10:23:38.024Z,5431.7
2023-07-24T10:25:38.390Z,6002.9
2023-07-24T10:27:38.057Z,6974.4
2023-07-24T10:29:38.174Z,8103.1
2023-07-24T10:31:38.267Z,8955.3
2023-07-24T10:33:38.088Z,9414.4
2023-07-24T10:35:38.483Z,10404.6
2023-07-24T10:37:37.973Z,10938
2023-07-24T10:39:37.990Z,8103.1
2023-07-24T10:41:38.073Z,7332
2023-07-24T10:43:37.999Z,7332
2023-07-24T10:45:38.492Z,6974.4
2023-07-24T10:47:38.045Z,7332
2023-07-24T10:49:38.435Z,9414.4
2023-07-24T10:51:38.033Z,10404.6
2023-07-24T10:53:38.031Z,10938
2023-07-24T10:55:38.445Z,11498.8
2023-07-24T10:57:38.001Z,10404.6
2023-07-24T10:59:38.047Z,7707.9
2023-07-24T11:01:38.533Z,5710.1
2023-07-24T11:05:38.499Z,4914.8
2023-07-24T11:07:38.412Z,6634.2
2023-07-24T11:09:38.012Z,7707.9
2023-07-24T11:11:38.026Z,9414.4
2023-07-24T11:13:44.775Z,10404.6
2023-07-24T11:15:38.425Z,11498.8
2023-07-24T11:17:38.082Z,10938
2023-07-24T11:19:41.702Z,9897.1
2023-07-24T11:21:41.668Z,10404.6
2023-07-24T11:25:38.432Z,10938
2023-07-24T11:27:41.680Z,10938
2023-07-24T11:29:38.015Z,11498.8
2023-07-24T11:31:41.784Z,11498.8
2023-07-24T11:33:37.977Z,9414.4
2023-07-24T11:35:38.530Z,8103.1
2023-07-24T11:37:41.201Z,6310.7
2023-07-24T11:39:37.994Z,4230.2
2023-07-24T11:41:44.824Z,2835.6
2023-07-24T11:43:37.983Z,2100.6
2023-07-24T11:45:37.957Z,1636
2023-07-24T11:47:45.081Z,1339.4
2023-07-24T11:49:41.621Z,1212
2023-07-24T11:51:38.441Z,1152.9
2023-07-24T11:53:41.761Z,992.3
2023-07-24T11:55:37.970Z,897.8
2023-07-24T11:57:37.992Z,812.4
2023-07-24T11:59:38.075Z,772.8
2023-07-24T12:01:44.727Z,632.7
2023-07-24T12:03:41.767Z,544.6
2023-07-24T12:05:38.570Z,601.8
2023-07-24T12:07:37.986Z,445.9
2023-07-24T12:09:44.816Z,518
2023-07-24T12:13:37.966Z,572.5
2023-07-24T12:17:41.766Z,601.8
2023-07-24T12:19:37.990Z,812.4
2023-07-24T12:21:38.029Z,1152.9
2023-07-24T12:25:37.999Z,2100.6
2023-07-24T12:27:45.018Z,2697.3
2023-07-24T12:31:38.177Z,2697.3
2023-07-24T12:33:41.680Z,2565.7
2023-07-24T12:35:38.032Z,2565.7
2023-07-24T12:37:41.716Z,2697.3
2023-07-24T12:39:38.015Z,2835.6
2023-07-24T12:41:45.092Z,2565.7
2023-07-24T12:43:41.135Z,2565.7
2023-07-24T12:45:37.963Z,2565.7
2023-07-24T12:47:38.650Z,2697.3
2023-07-24T12:49:41.598Z,2981
2023-07-24T12:51:38.406Z,3463.4
2023-07-24T12:53:42.333Z,4023.9
2023-07-24T12:55:38.473Z,4447.1
2023-07-24T12:57:41.671Z,5166.8
2023-07-24T12:59:38.662Z,6634.2
2023-07-24T13:01:37.981Z,7332
2023-07-24T13:03:41.761Z,7707.9
2023-07-24T13:05:38.100Z,7332
2023-07-24T13:07:38.016Z,6974.4
2023-07-24T13:09:38.050Z,6634.2
2023-07-24T13:11:41.656Z,6634.2
2023-07-24T13:13:38.506Z,6974.4
2023-07-24T13:15:37.972Z,7707.9
2023-07-24T13:17:41.198Z,7707.9
2023-07-24T13:21:37.976Z,6002.9
2023-07-24T13:23:44.811Z,5710.1
2023-07-24T13:25:37.994Z,5710.1
2023-07-24T13:27:38.432Z,5431.7
2023-07-24T13:29:41.631Z,5166.8
2023-07-24T13:31:38.787Z,4914.8
2023-07-24T13:33:44.833Z,4447.1
2023-07-24T13:37:38.442Z,4914.8
2023-07-24T13:39:37.998Z,6002.9
2023-07-24T13:41:38.513Z,6974.4
2023-07-24T13:43:41.642Z,7707.9
2023-07-24T13:45:38.013Z,7707.9
2023-07-24T13:47:41.704Z,6974.4
2023-07-24T13:49:37.990Z,6634.2
2023-07-24T13:51:45.063Z,6634.2
2023-07-24T13:53:38.068Z,6634.2
2023-07-24T13:55:38.018Z,6310.7
2023-07-24T13:57:44.821Z,6634.2
2023-07-24T13:59:37.996Z,6634.2
2023-07-24T14:01:41.608Z,5710.1
2023-07-24T14:03:38.121Z,5166.8
2023-07-24T14:07:37.985Z,5710.1
2023-07-24T14:09:38.048Z,6310.7
2023-07-24T14:11:39.922Z,6002.9
2023-07-24T14:13:38.547Z,5166.8
2023-07-24T14:15:41.743Z,4447.1
2023-07-24T14:17:44.826Z,3641
2023-07-24T14:19:44.710Z,3133.8
2023-07-24T14:21:38.047Z,2565.7
2023-07-24T14:23:41.701Z,2565.7
2023-07-24T14:25:37.986Z,3133.8
2023-07-24T14:27:41.218Z,3827.6
2023-07-24T14:29:41.727Z,3827.6
2023-07-24T14:31:38.016Z,3641
2023-07-24T14:33:44.870Z,4023.9
2023-07-24T14:35:38.046Z,4447.1
2023-07-24T14:37:37.988Z,4447.1
2023-07-24T14:39:41.265Z,4914.8
2023-07-24T14:41:38.027Z,4447.1
2023-07-24T14:43:37.989Z,3294.5
2023-07-24T14:45:38.013Z,2835.6
2023-07-24T14:47:38.560Z,2565.7
2023-07-24T14:49:41.848Z,2565.7
2023-07-24T14:51:37.997Z,2321.6
2023-07-24T14:53:38.068Z,1900.7
2023-07-24T14:55:38.056Z,1480.3
2023-07-24T14:57:41.616Z,1274.1
2023-07-24T14:59:38.071Z,1043.1
2023-07-24T15:01:38.103Z,665.1
2023-07-24T15:03:38.532Z,572.5
2023-07-24T15:05:38.017Z,601.8
2023-07-24T15:07:38.796Z,572.5
2023-07-24T15:09:37.989Z,544.6
2023-07-24T15:11:38.035Z,601.8
2023-07-24T15:15:40.339Z,772.8
2023-07-24T15:17:45.005Z,1408.1
2023-07-24T15:19:38.049Z,1719.9
2023-07-24T15:21:38.454Z,2208.3
2023-07-24T15:23:38.070Z,2835.6
2023-07-24T15:25:38.548Z,3294.5
2023-07-24T15:27:38.013Z,3294.5
2023-07-24T15:29:38.126Z,2981
2023-07-24T15:31:44.916Z,2565.7
2023-07-24T15:33:38.489Z,2565.7
2023-07-24T15:35:38.546Z,2697.3
2023-07-24T15:37:37.988Z,2440.6
2023-07-24T15:39:37.999Z,2208.3
2023-07-24T15:41:41.759Z,1900.7
2023-07-24T15:43:41.738Z,1719.9
2023-07-24T15:47:41.701Z,1212
2023-07-24T15:49:37.995Z,1043.1
2023-07-24T15:51:40.990Z,854.1
2023-07-24T15:53:41.752Z,665.1
2023-07-24T15:55:38.466Z,572.5
2023-07-24T15:57:38.058Z,518
2023-07-24T15:59:38.040Z,492.7
2023-07-24T16:01:38.099Z,445.9
2023-07-24T16:03:35.332Z,424.1
2023-07-24T16:05:38.037Z,403.4
2023-07-24T16:09:41.823Z,403.4
2023-07-24T16:11:38.029Z,383.8
2023-07-24T16:13:38.007Z,365
2023-07-24T16:15:46.784Z,365
2023-07-24T16:17:38.073Z,403.4
2023-07-24T16:19:38.024Z,518
2023-07-24T16:21:38.792Z,699.2
2023-07-24T16:23:38.453Z,943.9
2023-07-24T16:25:38.949Z,1212
2023-07-24T16:27:42.094Z,1339.4
2023-07-24T16:29:38.033Z,1408.1
2023-07-24T16:31:41.792Z,1408.1
2023-07-24T16:33:38.521Z,1339.4
2023-07-24T16:35:38.556Z,1274.1
2023-07-24T16:37:41.808Z,1212
2023-07-24T16:39:41.647Z,1152.9
2023-07-24T16:41:38.170Z,1152.9
2023-07-24T16:43:39.505Z,1212
2023-07-24T16:45:38.460Z,1339.4
2023-07-24T16:47:41.849Z,1408.1
2023-07-24T16:49:38.004Z,1719.9
2023-07-24T16:51:38.015Z,3133.8
2023-07-24T16:53:41.717Z,3294.5
2023-07-24T16:55:44.912Z,3827.6
2023-07-24T16:57:38.010Z,4675.1
2023-07-24T16:59:38.056Z,4675.1
2023-07-24T17:01:38.047Z,4675.1
2023-07-24T17:03:38.780Z,3463.4
2023-07-24T17:05:38.491Z,2981
2023-07-24T17:07:38.036Z,2697.3
2023-07-24T17:09:38.719Z,3463.4
2023-07-24T17:11:41.393Z,3294.5
2023-07-24T17:13:41.768Z,3133.8
2023-07-24T17:15:38.472Z,2565.7
2023-07-24T17:17:38.634Z,1998.2
2023-07-24T17:19:38.973Z,1719.9
2023-07-24T17:21:38.036Z,1556.2
2023-07-24T17:23:38.085Z,1480.3
2023-07-24T17:25:45.507Z,1480.3
2023-07-24T17:27:42.873Z,1408.1
2023-07-24T17:29:40.099Z,1408.1
2023-07-24T17:31:39.661Z,1408.1
2023-07-24T17:33:40.000Z,1274.1
2023-07-24T17:35:39.677Z,1152.9
2023-07-24T17:37:39.651Z,1096.6
2023-07-24T17:39:46.424Z,1152.9
2023-07-24T17:41:39.665Z,1556.2
2023-07-24T17:43:43.337Z,1636
2023-07-24T17:45:40.121Z,1556.2
2023-07-24T17:47:40.128Z,1408.1
2023-07-24T17:49:39.948Z,1043.1
2023-07-24T17:51:40.010Z,1043.1
2023-07-24T17:55:40.178Z,812.4
2023-07-24T17:57:43.360Z,699.2
2023-07-24T17:59:39.691Z,772.8
2023-07-24T18:01:43.526Z,1152.9
2023-07-24T18:03:43.394Z,1274.1
2023-07-24T18:05:40.189Z,1212
2023-07-24T18:07:39.672Z,1096.6
2023-07-24T18:09:40.115Z,1043.1
2023-07-24T18:11:39.680Z,992.3
2023-07-24T18:13:46.418Z,854.1
2023-07-24T18:15:43.345Z,601.8
2023-07-24T18:17:43.351Z,492.7
2023-07-24T18:19:43.471Z,468.7
2023-07-24T18:21:39.645Z,572.5
2023-07-24T18:23:43.845Z,699.2
2023-07-24T18:25:39.694Z,812.4
2023-07-24T18:27:39.649Z,735.1
2023-07-24T18:29:40.402Z,601.8
2023-07-24T18:31:43.842Z,468.7
2023-07-24T18:33:43.325Z,347.2
2023-07-24T18:35:43.400Z,244.7
2023-07-24T18:37:43.355Z,244.7
2023-07-24T18:39:39.641Z,244.7
2023-07-24T18:41:40.098Z,221.4
2023-07-24T18:43:42.980Z,200.3
2023-07-24T18:45:39.648Z,134.3
2023-07-24T18:47:40.198Z,99.5
2023-07-24T18:49:39.695Z,85.6
2023-07-24T18:51:40.155Z,66.7
2023-07-24T18:53:40.064Z,57.4
2023-07-24T18:55:39.665Z,57.4
2023-07-24T18:57:39.658Z,54.6
2023-07-24T18:59:43.777Z,51.9
2023-07-24T19:01:39.903Z,54.6
2023-07-24T19:03:43.353Z,51.9
2023-07-24T19:05:46.479Z,49.4
2023-07-24T19:07:46.418Z,44.7
2023-07-24T19:09:39.747Z,40.4
2023-07-24T19:11:39.677Z,34.8
2023-07-24T19:13:40.113Z,27.1
2023-07-24T19:15:43.504Z,21.1
2023-07-24T19:17:39.723Z,15.6
2023-07-24T19:19:46.412Z,10.5
2023-07-24T19:21:43.754Z,7.4
2023-07-24T19:23:40.210Z,5.2
2023-07-24T19:25:46.492Z,3.3
2023-07-24T19:27:39.793Z,2.5
2023-07-24T19:29:39.729Z,1.9
2023-07-24T19:31:43.812Z,1.4
2023-07-24T19:33:39.893Z,1.1
2023-07-24T19:35:39.668Z,0.8
2023-07-24T19:37:43.808Z,0.6
2023-07-24T19:39:39.672Z,0.4
2023-07-24T19:41:40.627Z,0.3
2023-07-24T19:43:43.335Z,0.3
2023-07-24T19:45:39.713Z,0.2
2023-07-24T19:47:40.122Z,0.1
2023-07-24T19:49:44.336Z,0.1
2023-07-24T19:51:39.668Z,0
2023-07-24T19:53:40.055Z,0
2023-07-24T19:55:43.325Z,0
2023-07-24T19:57:39.658Z,0
2023-07-24T19:59:39.694Z,1
2023-07-24T20:01:40.162Z,1
2023-07-24T20:03:39.816Z,1
2023-07-24T20:05:40.106Z,1
2023-07-24T20:07:39.667Z,1
2023-07-24T20:09:43.411Z,1
2023-07-24T20:11:39.705Z,1
2023-07-24T20:13:39.672Z,1
2023-07-24T20:15:39.647Z,1
2023-07-24T20:17:39.716Z,1
2023-07-24T20:19:40.147Z,1
2023-07-24T20:23:43.368Z,1
2023-07-24T20:25:39.654Z,1
2023-07-24T20:27:39.647Z,1
2023-07-24T20:29:39.711Z,1
2023-07-24T20:31:39.683Z,1
2023-07-24T20:33:40.062Z,1
2023-07-24T20:35:46.587Z,1
2023-07-24T20:37:39.783Z,1
2023-07-24T20:39:46.413Z,1
2023-07-24T20:41:39.726Z,1
2023-07-24T20:43:43.376Z,1
2023-07-24T20:45:39.720Z,1
2023-07-24T20:49:39.648Z,1
2023-07-24T20:51:39.693Z,1
2023-07-24T20:53:46.690Z,1
2023-07-24T20:55:40.102Z,1
2023-07-24T20:57:40.130Z,1
2023-07-24T20:59:46.448Z,1
2023-07-24T21:01:39.719Z,1
2023-07-24T21:03:40.188Z,1
2023-07-24T21:05:40.158Z,1
2023-07-24T21:07:40.154Z,1
2023-07-24T21:09:39.643Z,1
2023-07-24T21:11:43.493Z,1
2023-07-24T21:13:46.471Z,1
2023-07-24T21:15:43.407Z,1
2023-07-24T21:17:40.219Z,1
2023-07-24T21:19:40.145Z,1
2023-07-24T21:21:43.397Z,1
2023-07-24T21:23:46.527Z,1
2023-07-24T21:25:39.646Z,1
2023-07-24T21:29:39.677Z,1
2023-07-24T21:31:40.175Z,1
2023-07-24T21:33:39.714Z,1
2023-07-24T21:35:39.683Z,1
2023-07-24T21:37:39.675Z,1
2023-07-24T21:41:39.729Z,1
2023-07-24T21:43:39.695Z,1
2023-07-24T21:45:43.573Z,1
2023-07-24T21:47:40.227Z,1
2023-07-24T21:49:39.675Z,1
2023-07-24T21:51:39.660Z,1
2023-07-24T21:53:39.690Z,1
2023-07-24T21:55:39.697Z,1
2023-07-24T21:57:39.708Z,1
2023-07-24T21:59:43.430Z,1
2023-07-24T22:01:39.728Z,1
2023-07-24T22:03:43.374Z,1
2023-07-24T22:05:43.323Z,1
2023-07-24T22:07:40.256Z,1
2023-07-24T22:09:39.661Z,1
2023-07-24T22:11:40.675Z,1
2023-07-24T22:13:43.392Z,1
2023-07-24T22:15:39.665Z,1
2023-07-24T22:17:40.159Z,1
2023-07-24T22:19:39.683Z,1
2023-07-24T22:21:43.490Z,1
2023-07-24T22:23:39.724Z,1
2023-07-24T22:25:39.722Z,1
2023-07-24T22:27:39.682Z,1
2023-07-24T22:29:40.157Z,1
2023-07-24T22:31:46.260Z,1
2023-07-24T22:33:39.679Z,1
2023-07-24T22:35:43.306Z,1
2023-07-24T22:37:39.702Z,1
2023-07-24T22:39:39.745Z,1
2023-07-24T22:41:40.668Z,1
2023-07-24T22:43:39.697Z,1
2023-07-24T22:45:39.783Z,1
2023-07-24T22:47:39.798Z,1
2023-07-24T22:49:39.770Z,1
2023-07-24T22:51:39.731Z,1
2023-07-24T22:53:39.732Z,1
2023-07-24T22:55:40.199Z,1
2023-07-24T22:57:42.955Z,1
2023-07-24T22:59:40.228Z,1
2023-07-24T23:01:43.235Z,1
2023-07-24T23:03:39.834Z,1
2023-07-24T23:05:39.727Z,1
2023-07-24T23:07:39.663Z,1
2023-07-24T23:09:40.217Z,1
2023-07-24T23:11:39.742Z,1
2023-07-24T23:13:46.542Z,1
2023-07-24T23:15:43.463Z,1
2023-07-24T23:17:39.751Z,1
2023-07-24T23:19:40.184Z,1
2023-07-24T23:21:43.392Z,1
2023-07-24T23:23:39.730Z,1
2023-07-24T23:25:39.659Z,1
2023-07-24T23:27:46.652Z,1
2023-07-24T23:29:40.240Z,1
2023-07-24T23:31:39.700Z,1
2023-07-24T23:33:39.727Z,1
2023-07-24T23:35:39.946Z,1
2023-07-24T23:37:39.660Z,1
2023-07-24T23:39:39.687Z,1
2023-07-24T23:41:40.261Z,1
2023-07-24T23:43:43.412Z,1
2023-07-24T23:45:39.650Z,1
2023-07-24T23:47:46.559Z,1
2023-07-24T23:49:40.131Z,1
2023-07-24T23:51:43.468Z,1
2023-07-24T23:53:43.481Z,1
2023-07-24T23:55:40.185Z,1
2023-07-24T23:57:43.571Z,1
2023-07-24T23:59:39.728Z,1
